sensor_id;sensor_type;location;lat;lon;timestamp;P1;durP1;ratioP1;P2;durP2;ratioP2
7181;SDS011;3632;42.724;23.298;2022-08-01T00:01:18;7.50;;;6.90;;
7181;SDS011;3632;42.724;23.298;2022-08-01T00:03:45;5.83;;;5.30;;
7181;SDS011;3632;42.724;23.298;2022-08-01T00:06:12;6.47;;;5.77;;
7181;SDS011;3632;42.724;23.298;2022-08-01T00:08:38;6.70;;;6.00;;
7181;SDS011;3632;42.724;23.298;2022-08-01T00:11:07;6.20;;;5.70;;
7181;SDS011;3632;42.724;23.298;2022-08-01T00:13:34;6.23;;;5.63;;
7181;SDS011;3632;42.724;23.298;2022-08-01T00:16:01;5.67;;;5.27;;
7181;SDS011;3632;42.724;23.298;2022-08-01T00:18:27;6.17;;;5.63;;
7181;SDS011;3632;42.724;23.298;2022-08-01T00:20:54;5.80;;;5.30;;
7181;SDS011;3632;42.724;23.298;2022-08-01T00:23:21;5.60;;;5.20;;
7181;SDS011;3632;42.724;23.298;2022-08-01T00:25:48;5.83;;;5.30;;
7181;SDS011;3632;42.724;23.298;2022-08-01T00:28:16;6.40;;;5.50;;
7181;SDS011;3632;42.724;23.298;2022-08-01T00:30:42;6.63;;;5.70;;
7181;SDS011;3632;42.724;23.298;2022-08-01T00:33:09;5.87;;;5.43;;
7181;SDS011;3632;42.724;23.298;2022-08-01T00:35:36;6.20;;;5.70;;
7181;SDS011;3632;42.724;23.298;2022-08-01T00:38:03;6.20;;;5.70;;
7181;SDS011;3632;42.724;23.298;2022-08-01T00:40:29;5.50;;;5.10;;
7181;SDS011;3632;42.724;23.298;2022-08-01T00:42:56;5.33;;;4.93;;
7181;SDS011;3632;42.724;23.298;2022-08-01T00:45:24;5.60;;;4.80;;
7181;SDS011;3632;42.724;23.298;2022-08-01T00:47:51;6.10;;;5.30;;
7181;SDS011;3632;42.724;23.298;2022-08-01T00:50:18;5.90;;;5.40;;
7181;SDS011;3632;42.724;23.298;2022-08-01T00:52:45;5.60;;;5.10;;
7181;SDS011;3632;42.724;23.298;2022-08-01T00:55:12;6.07;;;5.50;;
7181;SDS011;3632;42.724;23.298;2022-08-01T00:57:39;5.67;;;5.27;;
7181;SDS011;3632;42.724;23.298;2022-08-01T01:00:07;5.90;;;5.37;;
7181;SDS011;3632;42.724;23.298;2022-08-01T01:02:36;5.23;;;4.67;;
7181;SDS011;3632;42.724;23.298;2022-08-01T01:05:03;4.87;;;4.47;;
7181;SDS011;3632;42.724;23.298;2022-08-01T01:07:32;5.07;;;4.67;;
7181;SDS011;3632;42.724;23.298;2022-08-01T01:10:12;5.53;;;5.00;;
7181;SDS011;3632;42.724;23.298;2022-08-01T01:12:43;6.93;;;4.90;;
7181;SDS011;3632;42.724;23.298;2022-08-01T01:15:14;5.37;;;4.40;;
7181;SDS011;3632;42.724;23.298;2022-08-01T01:17:46;4.50;;;4.20;;
7181;SDS011;3632;42.724;23.298;2022-08-01T01:20:18;4.90;;;4.40;;
7181;SDS011;3632;42.724;23.298;2022-08-01T01:23:05;4.90;;;4.43;;
7181;SDS011;3632;42.724;23.298;2022-08-01T01:25:57;4.33;;;3.93;;
7181;SDS011;3632;42.724;23.298;2022-08-01T01:28:40;4.53;;;4.13;;
7181;SDS011;3632;42.724;23.298;2022-08-01T01:34:45;4.23;;;3.83;;
7181;SDS011;3632;42.724;23.298;2022-08-01T01:37:16;7.73;;;5.33;;
7181;SDS011;3632;42.724;23.298;2022-08-01T01:39:48;5.50;;;4.70;;
7181;SDS011;3632;42.724;23.298;2022-08-01T01:42:17;4.10;;;3.80;;
7181;SDS011;3632;42.724;23.298;2022-08-01T01:44:46;3.90;;;3.70;;
7181;SDS011;3632;42.724;23.298;2022-08-01T01:47:16;4.10;;;3.80;;
7181;SDS011;3632;42.724;23.298;2022-08-01T01:49:43;5.07;;;4.20;;
7181;SDS011;3632;42.724;23.298;2022-08-01T01:52:12;4.40;;;4.10;;
7181;SDS011;3632;42.724;23.298;2022-08-01T01:54:42;5.73;;;3.80;;
7181;SDS011;3632;42.724;23.298;2022-08-01T01:57:13;4.30;;;4.00;;
7181;SDS011;3632;42.724;23.298;2022-08-01T01:59:42;5.00;;;3.90;;
7181;SDS011;3632;42.724;23.298;2022-08-01T02:02:12;4.07;;;3.77;;
7181;SDS011;3632;42.724;23.298;2022-08-01T02:04:40;4.60;;;3.50;;
7181;SDS011;3632;42.724;23.298;2022-08-01T02:07:10;4.97;;;3.90;;
7181;SDS011;3632;42.724;23.298;2022-08-01T02:09:41;5.53;;;4.20;;
7181;SDS011;3632;42.724;23.298;2022-08-01T02:12:10;4.00;;;3.60;;
7181;SDS011;3632;42.724;23.298;2022-08-01T02:14:38;5.57;;;4.00;;
7181;SDS011;3632;42.724;23.298;2022-08-01T02:17:05;6.10;;;3.83;;
7181;SDS011;3632;42.724;23.298;2022-08-01T02:19:34;3.87;;;3.57;;
7181;SDS011;3632;42.724;23.298;2022-08-01T02:22:01;4.20;;;3.90;;
7181;SDS011;3632;42.724;23.298;2022-08-01T02:24:35;4.27;;;3.87;;
7181;SDS011;3632;42.724;23.298;2022-08-01T02:27:07;4.47;;;3.63;;
7181;SDS011;3632;42.724;23.298;2022-08-01T02:29:37;4.33;;;3.60;;
7181;SDS011;3632;42.724;23.298;2022-08-01T02:32:10;6.40;;;3.57;;
7181;SDS011;3632;42.724;23.298;2022-08-01T02:34:42;3.77;;;3.40;;
7181;SDS011;3632;42.724;23.298;2022-08-01T02:37:13;5.40;;;3.20;;
7181;SDS011;3632;42.724;23.298;2022-08-01T02:39:41;4.97;;;3.57;;
7181;SDS011;3632;42.724;23.298;2022-08-01T02:42:10;4.20;;;3.57;;
7181;SDS011;3632;42.724;23.298;2022-08-01T02:44:39;3.93;;;3.53;;
7181;SDS011;3632;42.724;23.298;2022-08-01T02:47:09;5.47;;;3.70;;
7181;SDS011;3632;42.724;23.298;2022-08-01T02:49:37;5.93;;;3.60;;
7181;SDS011;3632;42.724;23.298;2022-08-01T02:52:10;3.70;;;3.27;;
7181;SDS011;3632;42.724;23.298;2022-08-01T02:54:39;3.50;;;3.20;;
7181;SDS011;3632;42.724;23.298;2022-08-01T02:57:08;4.10;;;3.43;;
7181;SDS011;3632;42.724;23.298;2022-08-01T02:59:35;3.80;;;3.40;;
7181;SDS011;3632;42.724;23.298;2022-08-01T03:02:04;3.70;;;3.27;;
7181;SDS011;3632;42.724;23.298;2022-08-01T03:04:33;3.60;;;3.33;;
7181;SDS011;3632;42.724;23.298;2022-08-01T03:07:02;4.03;;;3.20;;
7181;SDS011;3632;42.724;23.298;2022-08-01T03:09:33;4.27;;;3.87;;
7181;SDS011;3632;42.724;23.298;2022-08-01T03:12:02;6.43;;;3.93;;
7181;SDS011;3632;42.724;23.298;2022-08-01T03:14:32;4.20;;;3.67;;
7181;SDS011;3632;42.724;23.298;2022-08-01T03:17:02;4.23;;;3.70;;
7181;SDS011;3632;42.724;23.298;2022-08-01T03:19:31;4.83;;;4.20;;
7181;SDS011;3632;42.724;23.298;2022-08-01T03:21:59;5.63;;;4.10;;
7181;SDS011;3632;42.724;23.298;2022-08-01T03:24:32;5.80;;;3.87;;
7181;SDS011;3632;42.724;23.298;2022-08-01T03:27:00;4.43;;;4.03;;
7181;SDS011;3632;42.724;23.298;2022-08-01T03:29:29;4.60;;;3.90;;
7181;SDS011;3632;42.724;23.298;2022-08-01T03:31:58;5.10;;;4.63;;
7181;SDS011;3632;42.724;23.298;2022-08-01T03:34:27;4.93;;;4.47;;
7181;SDS011;3632;42.724;23.298;2022-08-01T03:36:55;5.13;;;4.60;;
7181;SDS011;3632;42.724;23.298;2022-08-01T03:39:28;9.77;;;4.40;;
7181;SDS011;3632;42.724;23.298;2022-08-01T03:42:01;8.57;;;4.27;;
7181;SDS011;3632;42.724;23.298;2022-08-01T03:44:32;4.60;;;4.20;;
7181;SDS011;3632;42.724;23.298;2022-08-01T03:47:05;5.20;;;4.63;;
7181;SDS011;3632;42.724;23.298;2022-08-01T03:49:35;5.60;;;4.80;;
7181;SDS011;3632;42.724;23.298;2022-08-01T03:52:06;7.93;;;5.30;;
7181;SDS011;3632;42.724;23.298;2022-08-01T03:54:35;8.20;;;5.30;;
7181;SDS011;3632;42.724;23.298;2022-08-01T03:57:05;8.53;;;7.67;;
7181;SDS011;3632;42.724;23.298;2022-08-01T03:59:32;8.10;;;6.23;;
7181;SDS011;3632;42.724;23.298;2022-08-01T04:02:02;7.17;;;5.50;;
7181;SDS011;3632;42.724;23.298;2022-08-01T04:04:29;7.83;;;5.20;;
7181;SDS011;3632;42.724;23.298;2022-08-01T04:06:56;5.40;;;4.50;;
7181;SDS011;3632;42.724;23.298;2022-08-01T04:09:29;8.43;;;4.37;;
7181;SDS011;3632;42.724;23.298;2022-08-01T04:12:00;6.20;;;4.90;;
7181;SDS011;3632;42.724;23.298;2022-08-01T04:14:28;7.67;;;5.13;;
7181;SDS011;3632;42.724;23.298;2022-08-01T04:16:55;8.93;;;7.23;;
7181;SDS011;3632;42.724;23.298;2022-08-01T04:19:22;11.47;;;6.10;;
7181;SDS011;3632;42.724;23.298;2022-08-01T04:21:49;9.17;;;6.37;;
7181;SDS011;3632;42.724;23.298;2022-08-01T04:24:16;8.97;;;6.60;;
7181;SDS011;3632;42.724;23.298;2022-08-01T04:26:45;8.40;;;6.53;;
7181;SDS011;3632;42.724;23.298;2022-08-01T04:29:14;8.87;;;6.20;;
7181;SDS011;3632;42.724;23.298;2022-08-01T04:31:45;8.13;;;5.90;;
7181;SDS011;3632;42.724;23.298;2022-08-01T04:34:15;6.33;;;5.23;;
7181;SDS011;3632;42.724;23.298;2022-08-01T04:36:45;5.83;;;4.60;;
7181;SDS011;3632;42.724;23.298;2022-08-01T04:39:14;5.77;;;4.70;;
7181;SDS011;3632;42.724;23.298;2022-08-01T04:41:43;8.20;;;5.13;;
7181;SDS011;3632;42.724;23.298;2022-08-01T04:44:12;7.10;;;5.17;;
7181;SDS011;3632;42.724;23.298;2022-08-01T04:46:39;8.60;;;4.90;;
7181;SDS011;3632;42.724;23.298;2022-08-01T04:49:08;9.60;;;5.20;;
7181;SDS011;3632;42.724;23.298;2022-08-01T04:51:38;7.27;;;5.00;;
7181;SDS011;3632;42.724;23.298;2022-08-01T04:54:16;8.23;;;4.97;;
7181;SDS011;3632;42.724;23.298;2022-08-01T04:56:43;7.13;;;5.00;;
7181;SDS011;3632;42.724;23.298;2022-08-01T04:59:09;6.60;;;5.10;;
7181;SDS011;3632;42.724;23.298;2022-08-01T05:01:53;6.13;;;4.80;;
7181;SDS011;3632;42.724;23.298;2022-08-01T05:04:21;6.27;;;4.87;;
7181;SDS011;3632;42.724;23.298;2022-08-01T05:06:48;5.40;;;4.90;;
7181;SDS011;3632;42.724;23.298;2022-08-01T05:09:15;7.37;;;4.57;;
7181;SDS011;3632;42.724;23.298;2022-08-01T05:11:42;6.57;;;5.17;;
7181;SDS011;3632;42.724;23.298;2022-08-01T05:14:09;6.23;;;4.67;;
7181;SDS011;3632;42.724;23.298;2022-08-01T05:16:35;6.87;;;5.07;;
7181;SDS011;3632;42.724;23.298;2022-08-01T05:19:02;5.33;;;4.80;;
7181;SDS011;3632;42.724;23.298;2022-08-01T05:21:30;6.87;;;5.07;;
7181;SDS011;3632;42.724;23.298;2022-08-01T05:23:57;8.50;;;4.83;;
7181;SDS011;3632;42.724;23.298;2022-08-01T05:26:24;7.10;;;5.50;;
7181;SDS011;3632;42.724;23.298;2022-08-01T05:28:51;8.20;;;5.40;;
7181;SDS011;3632;42.724;23.298;2022-08-01T05:31:17;6.10;;;5.10;;
7181;SDS011;3632;42.724;23.298;2022-08-01T05:33:44;8.03;;;5.30;;
7181;SDS011;3632;42.724;23.298;2022-08-01T05:36:11;6.80;;;4.87;;
7181;SDS011;3632;42.724;23.298;2022-08-01T05:38:39;5.73;;;4.80;;
7181;SDS011;3632;42.724;23.298;2022-08-01T05:41:06;12.67;;;4.83;;
7181;SDS011;3632;42.724;23.298;2022-08-01T05:43:33;6.03;;;5.13;;
7181;SDS011;3632;42.724;23.298;2022-08-01T05:45:59;5.93;;;4.63;;
7181;SDS011;3632;42.724;23.298;2022-08-01T05:48:26;5.03;;;4.10;;
7181;SDS011;3632;42.724;23.298;2022-08-01T05:50:53;7.10;;;3.80;;
7181;SDS011;3632;42.724;23.298;2022-08-01T05:53:20;5.17;;;3.73;;
7181;SDS011;3632;42.724;23.298;2022-08-01T05:55:48;5.60;;;4.07;;
7181;SDS011;3632;42.724;23.298;2022-08-01T05:58:15;7.33;;;4.00;;
7181;SDS011;3632;42.724;23.298;2022-08-01T06:00:42;4.43;;;3.63;;
7181;SDS011;3632;42.724;23.298;2022-08-01T06:03:09;5.63;;;3.40;;
7181;SDS011;3632;42.724;23.298;2022-08-01T06:05:36;5.70;;;3.47;;
7181;SDS011;3632;42.724;23.298;2022-08-01T06:08:03;5.47;;;3.70;;
7181;SDS011;3632;42.724;23.298;2022-08-01T06:10:30;5.67;;;3.50;;
7181;SDS011;3632;42.724;23.298;2022-08-01T06:12:58;4.17;;;3.40;;
7181;SDS011;3632;42.724;23.298;2022-08-01T06:15:28;5.07;;;3.50;;
7181;SDS011;3632;42.724;23.298;2022-08-01T06:17:55;5.30;;;3.47;;
7181;SDS011;3632;42.724;23.298;2022-08-01T06:20:22;4.33;;;3.13;;
7181;SDS011;3632;42.724;23.298;2022-08-01T06:22:48;5.83;;;3.10;;
7181;SDS011;3632;42.724;23.298;2022-08-01T06:25:16;5.63;;;2.90;;
7181;SDS011;3632;42.724;23.298;2022-08-01T06:27:43;3.33;;;3.03;;
7181;SDS011;3632;42.724;23.298;2022-08-01T06:30:12;3.37;;;2.80;;
7181;SDS011;3632;42.724;23.298;2022-08-01T06:32:39;4.30;;;2.90;;
7181;SDS011;3632;42.724;23.298;2022-08-01T06:35:06;5.30;;;3.00;;
7181;SDS011;3632;42.724;23.298;2022-08-01T06:37:33;4.70;;;2.67;;
7181;SDS011;3632;42.724;23.298;2022-08-01T06:40:00;3.70;;;2.63;;
7181;SDS011;3632;42.724;23.298;2022-08-01T06:42:27;6.63;;;2.70;;
7181;SDS011;3632;42.724;23.298;2022-08-01T06:44:56;3.77;;;2.63;;
7181;SDS011;3632;42.724;23.298;2022-08-01T06:47:25;3.30;;;2.40;;
7181;SDS011;3632;42.724;23.298;2022-08-01T06:49:51;2.90;;;2.60;;
7181;SDS011;3632;42.724;23.298;2022-08-01T06:52:18;2.70;;;2.50;;
7181;SDS011;3632;42.724;23.298;2022-08-01T06:54:45;5.00;;;2.50;;
7181;SDS011;3632;42.724;23.298;2022-08-01T06:57:12;3.63;;;2.77;;
7181;SDS011;3632;42.724;23.298;2022-08-01T06:59:39;3.27;;;2.63;;
7181;SDS011;3632;42.724;23.298;2022-08-01T07:02:05;4.20;;;2.80;;
7181;SDS011;3632;42.724;23.298;2022-08-01T07:04:34;3.40;;;2.67;;
7181;SDS011;3632;42.724;23.298;2022-08-01T07:07:01;14.60;;;2.70;;
7181;SDS011;3632;42.724;23.298;2022-08-01T07:09:28;3.50;;;2.10;;
7181;SDS011;3632;42.724;23.298;2022-08-01T07:11:55;3.93;;;2.50;;
7181;SDS011;3632;42.724;23.298;2022-08-01T07:14:22;3.67;;;2.30;;
7181;SDS011;3632;42.724;23.298;2022-08-01T07:16:49;2.87;;;2.47;;
7181;SDS011;3632;42.724;23.298;2022-08-01T07:19:17;5.67;;;2.60;;
7181;SDS011;3632;42.724;23.298;2022-08-01T07:21:45;2.87;;;2.40;;
7181;SDS011;3632;42.724;23.298;2022-08-01T07:24:12;2.73;;;2.20;;
7181;SDS011;3632;42.724;23.298;2022-08-01T07:26:40;3.23;;;2.67;;
7181;SDS011;3632;42.724;23.298;2022-08-01T07:29:08;4.03;;;2.60;;
7181;SDS011;3632;42.724;23.298;2022-08-01T07:31:35;3.67;;;2.50;;
7181;SDS011;3632;42.724;23.298;2022-08-01T07:34:02;2.40;;;2.20;;
7181;SDS011;3632;42.724;23.298;2022-08-01T07:36:29;3.03;;;2.43;;
7181;SDS011;3632;42.724;23.298;2022-08-01T07:38:57;3.23;;;2.70;;
7181;SDS011;3632;42.724;23.298;2022-08-01T07:41:24;3.23;;;2.57;;
7181;SDS011;3632;42.724;23.298;2022-08-01T07:43:51;2.70;;;2.50;;
7181;SDS011;3632;42.724;23.298;2022-08-01T07:46:17;3.63;;;2.73;;
7181;SDS011;3632;42.724;23.298;2022-08-01T07:48:44;5.03;;;2.60;;
7181;SDS011;3632;42.724;23.298;2022-08-01T07:51:11;3.83;;;2.57;;
7181;SDS011;3632;42.724;23.298;2022-08-01T07:53:37;2.60;;;2.40;;
7181;SDS011;3632;42.724;23.298;2022-08-01T07:56:06;3.90;;;2.50;;
7181;SDS011;3632;42.724;23.298;2022-08-01T07:58:33;4.97;;;2.80;;
7181;SDS011;3632;42.724;23.298;2022-08-01T08:01:00;4.67;;;3.00;;
7181;SDS011;3632;42.724;23.298;2022-08-01T08:03:26;3.50;;;2.50;;
7181;SDS011;3632;42.724;23.298;2022-08-01T08:05:53;4.07;;;3.00;;
7181;SDS011;3632;42.724;23.298;2022-08-01T08:08:20;4.30;;;2.80;;
7181;SDS011;3632;42.724;23.298;2022-08-01T08:10:47;6.73;;;3.20;;
7181;SDS011;3632;42.724;23.298;2022-08-01T08:13:15;4.23;;;3.07;;
7181;SDS011;3632;42.724;23.298;2022-08-01T08:15:41;3.70;;;2.97;;
7181;SDS011;3632;42.724;23.298;2022-08-01T08:18:08;2.70;;;2.50;;
7181;SDS011;3632;42.724;23.298;2022-08-01T08:20:35;5.33;;;2.60;;
7181;SDS011;3632;42.724;23.298;2022-08-01T08:23:02;3.57;;;2.70;;
7181;SDS011;3632;42.724;23.298;2022-08-01T08:25:48;5.53;;;2.93;;
7181;SDS011;3632;42.724;23.298;2022-08-01T08:28:16;3.90;;;2.70;;
7181;SDS011;3632;42.724;23.298;2022-08-01T08:30:43;4.63;;;2.80;;
7181;SDS011;3632;42.724;23.298;2022-08-01T08:33:10;5.03;;;2.80;;
7181;SDS011;3632;42.724;23.298;2022-08-01T08:35:38;3.57;;;3.00;;
7181;SDS011;3632;42.724;23.298;2022-08-01T08:38:06;5.13;;;2.63;;
7181;SDS011;3632;42.724;23.298;2022-08-01T08:40:33;4.93;;;2.70;;
7181;SDS011;3632;42.724;23.298;2022-08-01T08:43:03;4.43;;;3.07;;
7181;SDS011;3632;42.724;23.298;2022-08-01T08:45:32;3.23;;;2.60;;
7181;SDS011;3632;42.724;23.298;2022-08-01T08:47:59;4.20;;;2.90;;
7181;SDS011;3632;42.724;23.298;2022-08-01T08:50:26;5.67;;;2.63;;
7181;SDS011;3632;42.724;23.298;2022-08-01T08:52:54;3.93;;;2.70;;
7181;SDS011;3632;42.724;23.298;2022-08-01T08:55:22;2.70;;;2.40;;
7181;SDS011;3632;42.724;23.298;2022-08-01T08:57:49;3.13;;;2.30;;
7181;SDS011;3632;42.724;23.298;2022-08-01T09:00:18;4.83;;;2.70;;
7181;SDS011;3632;42.724;23.298;2022-08-01T09:02:46;3.47;;;2.30;;
7181;SDS011;3632;42.724;23.298;2022-08-01T09:05:15;2.83;;;2.60;;
7181;SDS011;3632;42.724;23.298;2022-08-01T09:07:43;5.03;;;2.47;;
7181;SDS011;3632;42.724;23.298;2022-08-01T09:10:10;3.30;;;2.30;;
7181;SDS011;3632;42.724;23.298;2022-08-01T09:12:37;4.63;;;2.50;;
7181;SDS011;3632;42.724;23.298;2022-08-01T09:15:04;2.63;;;2.43;;
7181;SDS011;3632;42.724;23.298;2022-08-01T09:17:38;3.90;;;2.90;;
7181;SDS011;3632;42.724;23.298;2022-08-01T09:20:08;2.83;;;2.40;;
7181;SDS011;3632;42.724;23.298;2022-08-01T09:22:49;4.00;;;2.40;;
7181;SDS011;3632;42.724;23.298;2022-08-01T09:25:16;6.13;;;2.57;;
7181;SDS011;3632;42.724;23.298;2022-08-01T09:27:42;2.50;;;2.30;;
7181;SDS011;3632;42.724;23.298;2022-08-01T09:30:10;2.53;;;2.27;;
7181;SDS011;3632;42.724;23.298;2022-08-01T09:32:52;3.63;;;2.20;;
7181;SDS011;3632;42.724;23.298;2022-08-01T09:35:25;5.90;;;2.40;;
7181;SDS011;3632;42.724;23.298;2022-08-01T09:37:57;3.73;;;2.70;;
7181;SDS011;3632;42.724;23.298;2022-08-01T09:40:45;3.50;;;2.47;;
7181;SDS011;3632;42.724;23.298;2022-08-01T09:43:13;5.33;;;2.20;;
7181;SDS011;3632;42.724;23.298;2022-08-01T09:45:40;6.07;;;2.87;;
7181;SDS011;3632;42.724;23.298;2022-08-01T09:48:08;4.43;;;2.43;;
7181;SDS011;3632;42.724;23.298;2022-08-01T09:50:41;3.00;;;2.40;;
7181;SDS011;3632;42.724;23.298;2022-08-01T09:53:09;4.07;;;2.33;;
7181;SDS011;3632;42.724;23.298;2022-08-01T09:55:36;2.70;;;2.40;;
7181;SDS011;3632;42.724;23.298;2022-08-01T09:58:03;3.43;;;2.33;;
7181;SDS011;3632;42.724;23.298;2022-08-01T10:00:30;2.93;;;2.63;;
7181;SDS011;3632;42.724;23.298;2022-08-01T10:02:58;4.10;;;2.53;;
7181;SDS011;3632;42.724;23.298;2022-08-01T10:05:31;2.90;;;2.70;;
7181;SDS011;3632;42.724;23.298;2022-08-01T10:08:02;7.37;;;2.80;;
7181;SDS011;3632;42.724;23.298;2022-08-01T10:10:30;2.63;;;2.40;;
7181;SDS011;3632;42.724;23.298;2022-08-01T10:12:58;3.20;;;2.60;;
7181;SDS011;3632;42.724;23.298;2022-08-01T10:15:25;4.20;;;2.40;;
7181;SDS011;3632;42.724;23.298;2022-08-01T10:17:53;3.07;;;2.50;;
7181;SDS011;3632;42.724;23.298;2022-08-01T10:20:22;2.50;;;2.30;;
7181;SDS011;3632;42.724;23.298;2022-08-01T10:22:51;2.50;;;2.30;;
7181;SDS011;3632;42.724;23.298;2022-08-01T10:25:21;3.37;;;2.37;;
7181;SDS011;3632;42.724;23.298;2022-08-01T10:27:48;2.70;;;2.20;;
7181;SDS011;3632;42.724;23.298;2022-08-01T10:30:19;6.37;;;2.60;;
7181;SDS011;3632;42.724;23.298;2022-08-01T10:32:47;5.63;;;2.37;;
7181;SDS011;3632;42.724;23.298;2022-08-01T10:35:14;2.23;;;2.03;;
7181;SDS011;3632;42.724;23.298;2022-08-01T10:40:35;5.90;;;2.30;;
7181;SDS011;3632;42.724;23.298;2022-08-01T10:43:03;2.43;;;2.23;;
7181;SDS011;3632;42.724;23.298;2022-08-01T10:45:30;3.43;;;2.10;;
7181;SDS011;3632;42.724;23.298;2022-08-01T10:47:59;4.07;;;2.60;;
7181;SDS011;3632;42.724;23.298;2022-08-01T10:50:39;8.63;;;2.80;;
7181;SDS011;3632;42.724;23.298;2022-08-01T10:53:12;4.50;;;2.07;;
7181;SDS011;3632;42.724;23.298;2022-08-01T10:55:46;4.83;;;2.47;;
7181;SDS011;3632;42.724;23.298;2022-08-01T10:58:14;5.20;;;3.03;;
7181;SDS011;3632;42.724;23.298;2022-08-01T11:00:46;6.73;;;2.30;;
7181;SDS011;3632;42.724;23.298;2022-08-01T11:03:13;4.17;;;2.50;;
7181;SDS011;3632;42.724;23.298;2022-08-01T11:05:40;4.97;;;2.40;;
7181;SDS011;3632;42.724;23.298;2022-08-01T11:08:12;4.03;;;2.80;;
7181;SDS011;3632;42.724;23.298;2022-08-01T11:10:49;3.83;;;2.40;;
7181;SDS011;3632;42.724;23.298;2022-08-01T11:16:32;4.20;;;2.60;;
7181;SDS011;3632;42.724;23.298;2022-08-01T11:19:00;3.73;;;3.00;;
7181;SDS011;3632;42.724;23.298;2022-08-01T11:27:24;4.80;;;2.80;;
7181;SDS011;3632;42.724;23.298;2022-08-01T11:32:55;2.40;;;2.30;;
7181;SDS011;3632;42.724;23.298;2022-08-01T11:35:23;4.60;;;2.20;;
7181;SDS011;3632;42.724;23.298;2022-08-01T11:37:52;2.23;;;1.90;;
7181;SDS011;3632;42.724;23.298;2022-08-01T11:40:22;5.00;;;2.50;;
7181;SDS011;3632;42.724;23.298;2022-08-01T11:45:47;3.60;;;2.23;;
7181;SDS011;3632;42.724;23.298;2022-08-01T11:48:18;3.13;;;2.50;;
7181;SDS011;3632;42.724;23.298;2022-08-01T11:50:46;2.60;;;2.40;;
7181;SDS011;3632;42.724;23.298;2022-08-01T11:53:12;4.43;;;3.23;;
7181;SDS011;3632;42.724;23.298;2022-08-01T11:55:43;2.83;;;2.63;;
7181;SDS011;3632;42.724;23.298;2022-08-01T11:58:15;3.77;;;2.60;;
7181;SDS011;3632;42.724;23.298;2022-08-01T12:00:49;4.23;;;2.33;;
7181;SDS011;3632;42.724;23.298;2022-08-01T12:03:22;3.58;;;2.30;;
7181;SDS011;3632;42.724;23.298;2022-08-01T12:05:50;3.28;;;2.80;;
7181;SDS011;3632;42.724;23.298;2022-08-01T12:08:24;5.18;;;3.55;;
7181;SDS011;3632;42.724;23.298;2022-08-01T12:10:51;5.28;;;2.83;;
7181;SDS011;3632;42.724;23.298;2022-08-01T12:13:20;4.13;;;2.60;;
7181;SDS011;3632;42.724;23.298;2022-08-01T12:15:47;3.33;;;2.70;;
7181;SDS011;3632;42.724;23.298;2022-08-01T12:18:15;2.35;;;2.20;;
7181;SDS011;3632;42.724;23.298;2022-08-01T12:20:43;4.25;;;2.50;;
7181;SDS011;3632;42.724;23.298;2022-08-01T12:23:12;4.80;;;2.50;;
7181;SDS011;3632;42.724;23.298;2022-08-01T12:25:41;4.88;;;2.38;;
7181;SDS011;3632;42.724;23.298;2022-08-01T12:28:09;2.53;;;2.28;;
7181;SDS011;3632;42.724;23.298;2022-08-01T12:30:39;2.50;;;2.30;;
7181;SDS011;3632;42.724;23.298;2022-08-01T12:33:08;5.18;;;3.42;;
7181;SDS011;3632;42.724;23.298;2022-08-01T12:35:37;5.20;;;2.67;;
7181;SDS011;3632;42.724;23.298;2022-08-01T12:38:05;4.78;;;2.65;;
7181;SDS011;3632;42.724;23.298;2022-08-01T12:40:35;6.03;;;3.50;;
7181;SDS011;3632;42.724;23.298;2022-08-01T12:43:04;2.72;;;2.53;;
7181;SDS011;3632;42.724;23.298;2022-08-01T12:45:33;3.13;;;2.65;;
7181;SDS011;3632;42.724;23.298;2022-08-01T12:48:05;3.63;;;2.63;;
7181;SDS011;3632;42.724;23.298;2022-08-01T12:50:34;2.60;;;2.40;;
7181;SDS011;3632;42.724;23.298;2022-08-01T12:53:03;2.70;;;2.50;;
7181;SDS011;3632;42.724;23.298;2022-08-01T12:55:31;3.50;;;2.58;;
7181;SDS011;3632;42.724;23.298;2022-08-01T12:58:03;5.50;;;2.50;;
7181;SDS011;3632;42.724;23.298;2022-08-01T13:00:31;2.63;;;2.42;;
7181;SDS011;3632;42.724;23.298;2022-08-01T13:03:03;6.10;;;4.60;;
7181;SDS011;3632;42.724;23.298;2022-08-01T13:05:40;2.45;;;2.10;;
7181;SDS011;3632;42.724;23.298;2022-08-01T13:08:09;3.92;;;2.00;;
7181;SDS011;3632;42.724;23.298;2022-08-01T13:10:37;2.50;;;2.05;;
7181;SDS011;3632;42.724;23.298;2022-08-01T13:13:04;3.47;;;2.38;;
7181;SDS011;3632;42.724;23.298;2022-08-01T13:15:32;5.55;;;2.70;;
7181;SDS011;3632;42.724;23.298;2022-08-01T13:18:00;4.53;;;2.40;;
7181;SDS011;3632;42.724;23.298;2022-08-01T13:20:48;2.67;;;2.00;;
7181;SDS011;3632;42.724;23.298;2022-08-01T13:23:16;2.67;;;2.10;;
7181;SDS011;3632;42.724;23.298;2022-08-01T13:25:50;3.95;;;2.40;;
7181;SDS011;3632;42.724;23.298;2022-08-01T13:28:20;3.10;;;2.70;;
7181;SDS011;3632;42.724;23.298;2022-08-01T13:30:51;2.42;;;2.20;;
7181;SDS011;3632;42.724;23.298;2022-08-01T13:33:23;2.88;;;2.28;;
7181;SDS011;3632;42.724;23.298;2022-08-01T13:35:52;4.30;;;2.60;;
7181;SDS011;3632;42.724;23.298;2022-08-01T13:38:20;2.60;;;2.30;;
7181;SDS011;3632;42.724;23.298;2022-08-01T13:41:06;2.47;;;2.28;;
7181;SDS011;3632;42.724;23.298;2022-08-01T13:43:33;4.55;;;2.38;;
7181;SDS011;3632;42.724;23.298;2022-08-01T13:46:01;4.00;;;2.10;;
7181;SDS011;3632;42.724;23.298;2022-08-01T13:48:29;2.38;;;2.00;;
7181;SDS011;3632;42.724;23.298;2022-08-01T13:50:58;2.70;;;2.10;;
7181;SDS011;3632;42.724;23.298;2022-08-01T13:53:25;7.00;;;2.22;;
7181;SDS011;3632;42.724;23.298;2022-08-01T13:55:52;2.42;;;2.22;;
7181;SDS011;3632;42.724;23.298;2022-08-01T13:58:19;2.83;;;2.30;;
7181;SDS011;3632;42.724;23.298;2022-08-01T14:00:46;2.75;;;2.42;;
7181;SDS011;3632;42.724;23.298;2022-08-01T14:03:12;2.47;;;2.28;;
7181;SDS011;3632;42.724;23.298;2022-08-01T14:05:41;3.95;;;2.10;;
7181;SDS011;3632;42.724;23.298;2022-08-01T14:08:10;10.52;;;8.60;;
7181;SDS011;3632;42.724;23.298;2022-08-01T14:10:38;2.80;;;2.00;;
7181;SDS011;3632;42.724;23.298;2022-08-01T14:13:05;2.70;;;2.10;;
7181;SDS011;3632;42.724;23.298;2022-08-01T14:15:31;3.90;;;2.00;;
7181;SDS011;3632;42.724;23.298;2022-08-01T14:17:58;3.03;;;1.85;;
7181;SDS011;3632;42.724;23.298;2022-08-01T14:20:25;4.00;;;2.00;;
7181;SDS011;3632;42.724;23.298;2022-08-01T14:22:52;2.00;;;1.80;;
7181;SDS011;3632;42.724;23.298;2022-08-01T14:25:20;4.13;;;2.03;;
7181;SDS011;3632;42.724;23.298;2022-08-01T14:27:47;4.60;;;1.90;;
7181;SDS011;3632;42.724;23.298;2022-08-01T14:30:15;5.68;;;2.10;;
7181;SDS011;3632;42.724;23.298;2022-08-01T14:32:42;4.68;;;1.92;;
7181;SDS011;3632;42.724;23.298;2022-08-01T14:35:09;3.28;;;1.98;;
7181;SDS011;3632;42.724;23.298;2022-08-01T14:37:35;2.95;;;1.92;;
7181;SDS011;3632;42.724;23.298;2022-08-01T14:40:02;5.90;;;1.77;;
7181;SDS011;3632;42.724;23.298;2022-08-01T14:42:35;2.15;;;1.90;;
7181;SDS011;3632;42.724;23.298;2022-08-01T14:45:02;1.85;;;1.70;;
7181;SDS011;3632;42.724;23.298;2022-08-01T14:47:33;4.10;;;2.20;;
7181;SDS011;3632;42.724;23.298;2022-08-01T14:50:00;2.70;;;2.50;;
7181;SDS011;3632;42.724;23.298;2022-08-01T14:52:27;2.63;;;2.08;;
7181;SDS011;3632;42.724;23.298;2022-08-01T14:54:53;3.33;;;2.22;;
7181;SDS011;3632;42.724;23.298;2022-08-01T14:57:20;5.05;;;2.95;;
7181;SDS011;3632;42.724;23.298;2022-08-01T14:59:48;4.25;;;2.10;;
7181;SDS011;3632;42.724;23.298;2022-08-01T15:02:15;1.98;;;1.88;;
7181;SDS011;3632;42.724;23.298;2022-08-01T15:04:42;2.35;;;2.05;;
7181;SDS011;3632;42.724;23.298;2022-08-01T15:07:09;3.20;;;1.77;;
7181;SDS011;3632;42.724;23.298;2022-08-01T15:09:36;3.47;;;1.83;;
7181;SDS011;3632;42.724;23.298;2022-08-01T15:12:03;2.58;;;1.75;;
7181;SDS011;3632;42.724;23.298;2022-08-01T15:14:30;2.25;;;2.05;;
7181;SDS011;3632;42.724;23.298;2022-08-01T15:17:17;6.35;;;2.03;;
7181;SDS011;3632;42.724;23.298;2022-08-01T15:19:46;2.47;;;1.70;;
7181;SDS011;3632;42.724;23.298;2022-08-01T15:22:14;2.30;;;1.90;;
7181;SDS011;3632;42.724;23.298;2022-08-01T15:24:41;2.10;;;2.00;;
7181;SDS011;3632;42.724;23.298;2022-08-01T15:27:08;4.20;;;2.35;;
7181;SDS011;3632;42.724;23.298;2022-08-01T15:29:35;2.10;;;2.00;;
7181;SDS011;3632;42.724;23.298;2022-08-01T15:32:02;2.20;;;2.00;;